createdAt,value
2022-11-14T00:04:54.618Z,11.60
2022-11-14T00:09:56.266Z,13.88
2022-11-14T00:14:57.957Z,12.85
2022-11-14T00:19:59.647Z,16.85
2022-11-14T00:25:01.325Z,16.90
2022-11-14T00:30:03.533Z,8.20
2022-11-14T00:35:05.443Z,13.73
2022-11-14T00:40:07.558Z,11.07
2022-11-14T00:45:09.937Z,8.93
2022-11-14T00:50:11.636Z,10.55
2022-11-14T00:55:13.264Z,6.93
2022-11-14T01:00:15.126Z,6.78
2022-11-14T01:05:16.872Z,7.07
2022-11-14T01:10:18.837Z,7.32
2022-11-14T01:15:20.479Z,8.75
2022-11-14T01:20:22.162Z,7.10
2022-11-14T01:25:23.786Z,5.90
2022-11-14T01:30:25.575Z,6.72
2022-11-14T01:35:27.284Z,6.68
2022-11-14T01:40:29.505Z,7.28
2022-11-14T01:45:47.897Z,7.20
2022-11-14T01:50:58.286Z,7.43
2022-11-14T01:56:04.902Z,7.57
2022-11-14T02:01:06.781Z,7.40
2022-11-14T02:06:12.887Z,7.78
2022-11-14T02:11:14.537Z,8.63
2022-11-14T02:16:16.419Z,7.85
2022-11-14T02:21:18.133Z,7.85
2022-11-14T02:26:21.403Z,7.93
2022-11-14T02:31:23.031Z,8.65
2022-11-14T02:36:24.962Z,9.48
2022-11-14T02:41:26.634Z,8.20
2022-11-14T02:46:28.263Z,10.60
2022-11-14T02:51:30.031Z,8.48
2022-11-14T02:56:31.688Z,8.85
2022-11-14T03:01:33.421Z,8.95
2022-11-14T03:06:35.088Z,8.55
2022-11-14T03:11:36.739Z,11.35
2022-11-14T03:16:38.445Z,8.95
2022-11-14T03:21:40.173Z,12.07
2022-11-14T03:26:41.833Z,9.73
2022-11-14T03:31:43.718Z,9.35
2022-11-14T03:36:46.264Z,9.65
2022-11-14T03:41:47.930Z,9.85
2022-11-14T03:46:49.642Z,8.98
2022-11-14T03:51:51.287Z,10.45
2022-11-14T03:56:52.941Z,10.48
2022-11-14T04:01:54.575Z,9.27
2022-11-14T04:06:56.298Z,8.75
2022-11-14T04:11:58.079Z,9.35
2022-11-14T04:16:59.742Z,8.52
2022-11-14T04:22:01.813Z,10.48
2022-11-14T04:27:03.628Z,10.18
2022-11-14T04:32:05.313Z,10.85
2022-11-14T04:37:06.998Z,9.85
2022-11-14T04:42:08.650Z,13.13
2022-11-14T04:47:10.321Z,9.30
2022-11-14T04:52:12.014Z,8.70
2022-11-14T04:57:14.231Z,11.25
2022-11-14T05:02:15.855Z,9.10
2022-11-14T05:07:17.646Z,9.55
2022-11-14T05:12:19.379Z,10.75
2022-11-14T05:17:21.045Z,11.13
2022-11-14T05:22:22.671Z,8.13
2022-11-14T05:27:24.418Z,9.05
2022-11-14T05:32:26.038Z,8.05
2022-11-14T05:37:27.682Z,8.40
2022-11-14T05:42:29.360Z,8.05
2022-11-14T05:47:30.968Z,8.30
2022-11-14T05:52:32.619Z,9.18
2022-11-14T05:57:35.857Z,9.25
2022-11-14T06:02:37.601Z,10.48
2022-11-14T06:07:39.322Z,8.20
2022-11-14T06:12:41.137Z,8.10
2022-11-14T06:17:42.776Z,8.55
2022-11-14T06:22:44.446Z,11.18
2022-11-14T06:27:46.077Z,8.80
2022-11-14T06:32:47.751Z,12.00
2022-11-14T06:37:49.364Z,11.60
2022-11-14T06:42:51.018Z,9.32
2022-11-14T06:47:52.638Z,8.23
2022-11-14T06:52:54.281Z,12.07
2022-11-14T06:57:56.308Z,13.93
2022-11-14T07:02:57.997Z,11.93
2022-11-14T07:07:59.699Z,13.27
2022-11-14T07:13:01.340Z,14.32
2022-11-14T07:18:02.992Z,12.23
2022-11-14T07:23:04.644Z,11.90
2022-11-14T07:28:07.209Z,11.77
2022-11-14T07:33:08.832Z,13.55
2022-11-14T07:38:10.477Z,14.10
2022-11-14T07:43:12.101Z,15.50
2022-11-14T07:48:13.720Z,13.82
2022-11-14T07:53:16.744Z,15.80
2022-11-14T07:58:18.642Z,10.77
2022-11-14T08:03:20.288Z,13.70
2022-11-14T08:08:21.994Z,12.50
2022-11-14T08:13:33.237Z,11.73
2022-11-14T08:18:35.466Z,14.60
2022-11-14T08:23:37.174Z,12.85
2022-11-14T08:28:39.023Z,14.38
2022-11-14T08:33:40.717Z,16.35
2022-11-14T08:38:42.490Z,15.65
2022-11-14T08:43:45.194Z,16.95
2022-11-14T08:48:46.852Z,17.83
2022-11-14T08:53:52.440Z,17.15
2022-11-14T08:58:59.802Z,17.95
2022-11-14T09:04:02.637Z,18.65
2022-11-14T09:09:05.506Z,20.40
2022-11-14T09:14:13.171Z,18.13
2022-11-14T09:19:15.884Z,16.38
2022-11-14T09:24:20.645Z,18.27
2022-11-14T09:29:26.590Z,18.10
2022-11-14T09:34:29.355Z,20.15
2022-11-14T09:39:38.017Z,20.48
2022-11-14T09:44:59.479Z,21.48
2022-11-14T09:50:14.568Z,21.30
2022-11-14T09:55:36.955Z,20.63
2022-11-14T10:01:09.091Z,20.42
2022-11-14T10:06:22.957Z,20.65
2022-11-14T10:11:45.493Z,24.70
2022-11-14T10:17:34.992Z,25.48
2022-11-14T10:22:40.491Z,24.92
2022-11-14T10:28:24.019Z,25.38
2022-11-14T10:34:06.351Z,23.05
2022-11-14T10:39:31.051Z,21.80
2022-11-14T10:45:13.160Z,23.90
2022-11-14T10:50:23.165Z,21.48
2022-11-14T10:55:49.780Z,21.95
2022-11-14T11:00:47.854Z,21.00
2022-11-14T11:05:51.939Z,20.95
2022-11-14T11:11:17.830Z,20.67
2022-11-14T11:16:34.865Z,20.60
2022-11-14T11:21:50.231Z,19.58
2022-11-14T11:27:26.211Z,18.25
2022-11-14T11:32:28.310Z,17.15
2022-11-14T11:37:44.592Z,18.08
2022-11-14T11:43:37.998Z,17.92
2022-11-14T11:48:46.551Z,17.02
2022-11-14T11:54:00.520Z,16.55
2022-11-14T11:59:27.967Z,16.60
2022-11-14T12:04:30.797Z,15.98
2022-11-14T12:15:32.212Z,16.73
2022-11-14T12:21:10.048Z,16.35
2022-11-14T12:26:31.466Z,16.45
2022-11-14T12:36:44.807Z,15.48
2022-11-14T12:41:49.691Z,15.73
2022-11-14T12:47:04.824Z,15.38
2022-11-14T12:52:45.409Z,15.05
2022-11-14T12:58:09.068Z,14.98
2022-11-14T13:03:31.752Z,14.15
2022-11-14T13:09:13.025Z,14.55
2022-11-14T13:14:33.369Z,15.93
2022-11-14T13:20:03.602Z,15.95
2022-11-14T13:25:11.355Z,16.02
2022-11-14T13:30:13.053Z,15.13
2022-11-14T13:35:45.757Z,16.38
2022-11-14T13:40:55.624Z,15.85
2022-11-14T13:46:21.316Z,17.05
2022-11-14T13:51:42.735Z,15.77
2022-11-14T13:57:09.134Z,13.45
2022-11-14T14:02:10.711Z,13.50
2022-11-14T14:07:15.453Z,12.85
2022-11-14T14:12:29.099Z,12.27
2022-11-14T14:17:43.429Z,15.88
2022-11-14T14:29:24.839Z,11.33
2022-11-14T14:34:31.567Z,10.73
2022-11-14T14:39:33.317Z,10.68
2022-11-14T14:44:51.627Z,11.07
2022-11-14T14:49:53.416Z,11.02
2022-11-14T14:54:57.382Z,10.10
2022-11-14T15:00:29.880Z,10.52
2022-11-14T15:05:32.712Z,10.40
2022-11-14T15:10:35.958Z,11.90
2022-11-14T15:15:47.073Z,12.48
2022-11-14T15:21:12.272Z,11.02
2022-11-14T15:26:31.706Z,11.63
2022-11-14T15:31:47.225Z,11.13
2022-11-14T15:37:13.117Z,11.52
2022-11-14T15:42:24.232Z,12.00
2022-11-14T15:47:27.713Z,11.18
2022-11-14T15:52:41.141Z,12.15
2022-11-14T15:57:45.380Z,12.10
2022-11-14T16:03:12.449Z,12.07
2022-11-14T16:08:14.595Z,11.52
2022-11-14T16:13:17.312Z,11.73
2022-11-14T16:18:29.174Z,12.25
2022-11-14T16:23:32.016Z,11.65
2022-11-14T16:28:35.944Z,11.23
2022-11-14T16:33:40.779Z,10.73
2022-11-14T16:38:42.548Z,10.68
2022-11-14T16:43:44.283Z,10.23
2022-11-14T16:48:48.088Z,10.70
2022-11-14T16:53:56.410Z,10.90
2022-11-14T16:59:01.527Z,9.80
2022-11-14T17:04:03.620Z,9.20
2022-11-14T17:09:05.444Z,8.63
2022-11-14T17:14:11.651Z,8.93
2022-11-14T17:19:16.387Z,7.90
2022-11-14T17:24:18.517Z,7.82
2022-11-14T17:29:20.707Z,7.25
2022-11-14T17:34:22.426Z,7.72
2022-11-14T17:39:26.926Z,6.70
2022-11-14T17:44:29.718Z,7.15
2022-11-14T17:49:32.272Z,7.28
2022-11-14T17:54:37.750Z,8.35
2022-11-14T17:59:41.438Z,8.65
2022-11-14T18:04:45.743Z,9.50
2022-11-14T18:09:51.649Z,8.63
2022-11-14T18:14:53.340Z,8.05
2022-11-14T18:19:56.647Z,7.25
2022-11-14T18:25:04.868Z,7.63
2022-11-14T18:30:39.343Z,8.60
2022-11-14T18:35:33.641Z,8.60
2022-11-14T18:40:35.407Z,29.23
2022-11-14T18:45:39.223Z,15.88
2022-11-14T18:50:40.962Z,14.45
2022-11-14T18:55:42.871Z,13.63
2022-11-14T19:00:45.302Z,12.82
2022-11-14T19:05:48.103Z,12.18
2022-11-14T19:10:49.832Z,9.63
2022-11-14T19:16:05.289Z,9.90
2022-11-14T19:21:10.686Z,10.68
2022-11-14T19:26:14.442Z,10.10
2022-11-14T19:31:17.900Z,9.82
2022-11-14T19:36:57.611Z,10.65
2022-11-14T19:41:55.108Z,10.40
2022-11-14T19:46:58.769Z,11.10
2022-11-14T19:52:01.449Z,11.00
2022-11-14T19:57:04.169Z,11.88
2022-11-14T20:02:06.106Z,12.43
2022-11-14T20:07:07.918Z,12.40
2022-11-14T20:12:09.569Z,11.85
2022-11-14T20:17:12.481Z,13.93
2022-11-14T20:22:14.206Z,14.52
2022-11-14T20:27:15.870Z,17.67
2022-11-14T20:32:17.574Z,22.30
2022-11-14T20:37:19.614Z,18.92
2022-11-14T20:42:21.247Z,17.85
2022-11-14T20:47:22.949Z,17.95
2022-11-14T20:52:24.612Z,16.23
2022-11-14T20:57:26.227Z,17.10
2022-11-14T21:02:27.888Z,13.68
2022-11-14T21:07:29.599Z,15.50
2022-11-14T21:12:31.336Z,13.50
2022-11-14T21:17:33.005Z,15.05
2022-11-14T21:22:34.656Z,16.52
2022-11-14T21:27:36.282Z,14.65
2022-11-14T21:32:37.954Z,13.30
2022-11-14T21:37:39.685Z,16.77
2022-11-14T21:42:42.121Z,18.27
2022-11-14T21:47:43.841Z,14.60
2022-11-14T21:52:45.469Z,14.43
2022-11-14T21:57:47.094Z,15.38
2022-11-14T22:03:07.445Z,15.32
2022-11-14T22:08:09.089Z,16.17
2022-11-14T22:13:10.761Z,17.33
2022-11-14T22:18:12.585Z,15.32
2022-11-14T22:23:15.275Z,15.13
2022-11-14T22:28:16.910Z,15.85
2022-11-14T22:33:18.881Z,17.98
2022-11-14T22:38:20.573Z,17.67
2022-11-14T22:43:22.545Z,19.23
2022-11-14T22:48:25.598Z,20.13
2022-11-14T22:53:31.984Z,16.88
2022-11-14T22:58:36.496Z,16.40
2022-11-14T23:03:39.147Z,18.23
2022-11-14T23:08:41.874Z,19.05
2022-11-14T23:13:47.144Z,19.63
2022-11-14T23:18:50.464Z,18.38
2022-11-14T23:23:53.535Z,19.15
2022-11-14T23:29:23.003Z,20.42
2022-11-14T23:34:25.068Z,19.73
2022-11-14T23:39:26.724Z,20.25
2022-11-14T23:44:28.365Z,19.77
2022-11-14T23:49:30.027Z,19.02
2022-11-14T23:54:31.692Z,21.13
2022-11-14T23:59:33.317Z,19.90
